Terminal Aerodrome Forecast
Issued by NWS Mt. Holly, NJ

Home | Current Version | Previous Version | Text Only | Print | Product List | Glossary On
Versions: 1 2 3 4 5 6 7 8 9 10 11 12 13 14 15 16 17 18 19 20 21 22 23 24 25 26 27 28 29 30 31 32
352
FTUS41 KPHI 120847 AAA
TAFPHL
TAF AMD
KPHL 120847Z 1209/1312 27010KT P6SM FEW150
     FM121600 23008KT P6SM FEW040 BKN100
     FM130300 24006KT 5SM -SHSN BKN040
     FM130600 25008KT P6SM OVC040=

USA.gov is the U.S. government's official web portal to all federal, state and local government web resources and services.